Time;durP1;ratioP1;P1;durP2;ratioP2;P2;SDS_P1;SDS_P2;PMS_P1;PMS_P2;Temp;Humidity;BMP_temperature;BMP_pressure;BME280_temperature;BME280_humidity;BME280_pressure;Samples;Min_cycle;Max_cycle;Signal;HPM_P1;HPM_P2
2021/06/07 00:02:05;;;;;;;4.27;1.40;;;16.90;91.10;;;;;;5054593;28;20650;-71
2021/06/07 00:04:32;;;;;;;2.03;1.43;;;16.90;91.10;;;;;;5055562;28;20515;-73
2021/06/07 00:07:00;;;;;;;5.47;1.53;;;17.00;91.40;;;;;;5054252;28;20271;-73
2021/06/07 00:09:29;;;;;;;6.13;1.50;;;16.90;91.40;;;;;;5061251;28;20191;-72
2021/06/07 00:12:02;;;;;;;4.73;1.50;;;17.00;91.50;;;;;;5052882;28;20196;-72
2021/06/07 00:14:34;;;;;;;3.90;1.37;;;17.00;91.50;;;;;;5055851;28;20645;-72
2021/06/07 00:17:03;;;;;;;4.50;1.63;;;17.00;91.70;;;;;;5055314;28;20242;-72
2021/06/07 00:19:32;;;;;;;2.63;1.40;;;17.00;91.70;;;;;;5052755;28;20195;-71
2021/06/07 00:22:00;;;;;;;4.93;1.60;;;16.90;91.60;;;;;;5051220;28;20180;-72
2021/06/07 00:24:28;;;;;;;3.83;1.50;;;16.90;91.70;;;;;;5056307;28;20187;-72
2021/06/07 00:26:54;;;;;;;2.27;1.47;;;17.00;91.80;;;;;;5041717;28;20210;-73
2021/06/07 00:29:22;;;;;;;4.90;1.60;;;17.00;91.90;;;;;;5057218;28;20184;-73
2021/06/07 00:31:48;;;;;;;3.33;1.60;;;17.00;92.00;;;;;;5054041;28;20226;-71
2021/06/07 00:34:15;;;;;;;4.77;1.70;;;16.90;92.00;;;;;;5041756;28;20191;-72
2021/06/07 00:36:42;;;;;;;6.00;1.73;;;16.90;92.00;;;;;;5053896;28;20203;-72
2021/06/07 00:39:14;;;;;;;4.70;1.30;;;16.90;92.00;;;;;;5057804;28;20190;-72
2021/06/07 00:41:46;;;;;;;2.93;1.40;;;16.90;92.20;;;;;;5060855;28;20277;-71
2021/06/07 00:44:21;;;;;;;5.87;1.70;;;16.90;92.10;;;;;;5046664;28;20214;-72
2021/06/07 00:46:48;;;;;;;3.87;1.40;;;16.80;92.10;;;;;;5058585;28;20573;-71
2021/06/07 00:49:16;;;;;;;4.30;1.50;;;16.90;92.00;;;;;;5057125;28;20190;-72
2021/06/07 00:51:45;;;;;;;5.07;1.63;;;16.90;92.00;;;;;;5054120;28;20268;-74
2021/06/07 00:54:12;;;;;;;2.07;1.60;;;16.90;92.10;;;;;;5042294;28;20222;-72
2021/06/07 00:56:40;;;;;;;2.70;1.50;;;16.80;92.10;;;;;;5058305;28;20226;-74
2021/06/07 00:59:07;;;;;;;7.70;1.60;;;16.90;92.20;;;;;;5055008;28;20832;-75
2021/06/07 01:01:35;;;;;;;3.17;1.30;;;16.90;92.40;;;;;;5058906;28;20708;-76
2021/06/07 01:04:03;;;;;;;2.93;1.50;;;16.90;92.60;;;;;;5056537;28;20187;-73
2021/06/07 01:06:31;;;;;;;3.97;1.27;;;17.00;92.60;;;;;;5056506;28;20293;-73
2021/06/07 01:08:57;;;;;;;7.10;1.40;;;17.10;92.50;;;;;;5058509;28;20218;-72
2021/06/07 01:11:25;;;;;;;2.60;1.37;;;17.10;92.40;;;;;;5055140;28;20270;-71
2021/06/07 01:13:53;;;;;;;4.17;1.60;;;17.10;92.20;;;;;;5055277;28;20278;-74
2021/06/07 01:16:20;;;;;;;4.70;1.57;;;17.10;92.20;;;;;;5054624;28;20275;-72
2021/06/07 01:18:48;;;;;;;4.37;1.80;;;17.10;92.00;;;;;;5060530;28;20781;-73
2021/06/07 01:21:24;;;;;;;3.97;1.57;;;17.00;91.90;;;;;;5061840;28;20225;-72
2021/06/07 01:23:55;;;;;;;7.53;1.60;;;17.10;92.30;;;;;;5061553;28;20186;-72
2021/06/07 01:26:24;;;;;;;5.40;1.90;;;17.00;92.10;;;;;;5056073;28;20199;-75
2021/06/07 01:28:51;;;;;;;2.33;1.30;;;17.10;92.10;;;;;;5052254;28;20215;-75
2021/06/07 01:31:18;;;;;;;4.23;1.50;;;17.00;92.10;;;;;;5055853;28;20244;-74
2021/06/07 01:33:50;;;;;;;7.30;1.70;;;17.00;92.10;;;;;;5052519;28;20919;-73
2021/06/07 01:36:17;;;;;;;6.20;1.60;;;16.90;92.10;;;;;;5058135;28;20655;-73
2021/06/07 01:38:44;;;;;;;4.70;1.40;;;16.90;92.10;;;;;;5056431;28;20187;-73
2021/06/07 01:41:14;;;;;;;3.63;1.60;;;16.90;92.30;;;;;;5060721;28;20306;-73
2021/06/07 01:43:41;;;;;;;6.30;1.70;;;16.90;92.20;;;;;;5057302;28;20187;-72
2021/06/07 01:46:09;;;;;;;5.43;1.50;;;16.90;92.20;;;;;;5070298;28;20314;-73
2021/06/07 01:48:36;;;;;;;3.83;1.50;;;16.70;91.90;;;;;;5057999;28;20247;-72
2021/06/07 01:51:06;;;;;;;8.50;1.80;;;16.60;91.90;;;;;;5059933;28;20667;-73
2021/06/07 01:53:32;;;;;;;2.73;1.20;;;16.50;92.00;;;;;;5058463;28;20270;-73
2021/06/07 01:56:06;;;;;;;5.50;1.60;;;16.40;92.10;;;;;;5059668;28;20718;-73
2021/06/07 01:58:33;;;;;;;3.00;1.50;;;16.40;92.30;;;;;;5058868;28;20183;-73
2021/06/07 02:01:18;;;;;;;2.20;1.40;;;16.40;92.40;;;;;;5057139;28;20191;-73
2021/06/07 02:03:46;;;;;;;1.57;1.30;;;16.40;92.40;;;;;;5052259;28;20191;-74
2021/06/07 02:06:17;;;;;;;5.37;1.77;;;16.50;92.50;;;;;;5051382;28;20210;-74
2021/06/07 02:08:44;;;;;;;3.43;1.60;;;16.50;92.40;;;;;;5054908;28;20190;-76
2021/06/07 02:11:21;;;;;;;4.77;1.60;;;16.50;92.50;;;;;;5054860;28;20971;-74
2021/06/07 02:13:51;;;;;;;4.60;1.30;;;16.50;92.50;;;;;;5038597;28;20182;-75
2021/06/07 02:16:25;;;;;;;4.10;1.70;;;16.50;92.10;;;;;;5053534;28;20199;-75
2021/06/07 02:18:53;;;;;;;1.87;1.37;;;16.60;92.20;;;;;;5053807;28;20183;-73
2021/06/07 02:21:23;;;;;;;7.73;1.57;;;16.60;92.30;;;;;;5068504;28;20179;-74
2021/06/07 02:23:52;;;;;;;5.10;1.47;;;16.60;92.10;;;;;;5042067;28;20730;-76
2021/06/07 02:26:22;;;;;;;3.53;1.50;;;16.60;92.10;;;;;;5041391;28;20197;-74
2021/06/07 02:29:03;;;;;;;3.53;1.50;;;16.60;92.00;;;;;;5058793;28;20667;-75
2021/06/07 02:31:30;;;;;;;3.13;1.77;;;16.50;92.20;;;;;;5053714;28;20320;-73
2021/06/07 02:34:00;;;;;;;5.57;1.50;;;16.60;91.90;;;;;;5043418;28;20194;-73
2021/06/07 02:36:31;;;;;;;4.70;1.70;;;16.60;91.90;;;;;;5056379;28;20571;-73
2021/06/07 02:38:59;;;;;;;2.90;1.43;;;16.70;91.80;;;;;;5054169;28;20179;-72
2021/06/07 02:41:27;;;;;;;7.27;1.80;;;16.70;91.90;;;;;;5053087;28;20398;-73
2021/06/07 02:43:53;;;;;;;3.80;1.43;;;16.70;91.90;;;;;;5052138;28;20214;-72
2021/06/07 02:46:21;;;;;;;4.40;1.57;;;16.70;91.90;;;;;;5056042;28;20667;-73
2021/06/07 02:48:47;;;;;;;7.13;1.60;;;16.70;92.00;;;;;;5052511;28;20560;-74
2021/06/07 02:51:14;;;;;;;3.17;1.23;;;16.60;91.80;;;;;;5058578;28;20267;-73
2021/06/07 02:53:40;;;;;;;3.40;1.67;;;16.60;92.30;;;;;;5050302;28;20734;-74
2021/06/07 02:56:07;;;;;;;4.73;1.57;;;16.70;92.10;;;;;;5056655;28;20712;-72
2021/06/07 02:58:34;;;;;;;5.20;1.60;;;16.70;91.80;;;;;;5055971;28;20192;-73
2021/06/07 03:01:11;;;;;;;4.67;1.40;;;16.70;91.80;;;;;;5052196;28;20751;-73
2021/06/07 03:03:38;;;;;;;6.27;1.73;;;16.80;91.70;;;;;;5056578;28;20232;-75
2021/06/07 03:06:06;;;;;;;8.90;1.87;;;16.80;91.50;;;;;;5055999;28;20781;-73
2021/06/07 03:08:35;;;;;;;3.57;1.60;;;16.80;91.90;;;;;;5043741;28;20209;-72
2021/06/07 03:11:12;;;;;;;5.47;1.63;;;16.90;91.80;;;;;;5059365;28;20618;-74
2021/06/07 03:13:41;;;;;;;6.43;1.90;;;16.90;91.50;;;;;;5071825;28;20348;-75
2021/06/07 03:16:09;;;;;;;2.67;1.50;;;16.90;91.30;;;;;;5064098;28;20223;-73
2021/06/07 03:18:37;;;;;;;4.33;1.17;;;17.00;91.20;;;;;;5057804;28;20706;-74
2021/06/07 03:21:04;;;;;;;2.47;1.40;;;17.10;91.60;;;;;;5043897;28;20643;-73
2021/06/07 03:23:34;;;;;;;3.93;1.23;;;17.10;91.10;;;;;;5062711;28;20197;-73
2021/06/07 03:26:02;;;;;;;2.10;1.30;;;17.20;91.20;;;;;;5054804;28;20556;-75
2021/06/07 03:28:29;;;;;;;2.87;1.43;;;17.10;91.20;;;;;;5042223;28;20187;-74
2021/06/07 03:30:56;;;;;;;3.93;1.50;;;17.20;91.40;;;;;;5057887;28;20584;-76
2021/06/07 03:33:24;;;;;;;4.60;1.60;;;17.20;91.30;;;;;;5057102;28;20188;-73
2021/06/07 03:35:55;;;;;;;4.37;1.40;;;17.20;91.30;;;;;;5060264;28;20211;-73
2021/06/07 03:38:22;;;;;;;3.43;1.40;;;17.10;91.30;;;;;;5059133;28;20614;-73
2021/06/07 03:40:53;;;;;;;4.77;1.67;;;17.10;91.30;;;;;;5060459;28;20278;-75
2021/06/07 03:43:23;;;;;;;4.37;1.70;;;17.10;91.20;;;;;;5057564;28;20190;-75
2021/06/07 03:45:50;;;;;;;6.53;1.60;;;17.20;91.30;;;;;;5059278;28;20194;-75
2021/06/07 03:48:17;;;;;;;3.33;1.40;;;17.20;91.40;;;;;;5058885;28;20263;-75
2021/06/07 03:50:44;;;;;;;2.17;1.23;;;17.20;91.50;;;;;;5059527;28;20199;-75
2021/06/07 03:53:12;;;;;;;3.50;1.50;;;17.20;91.40;;;;;;5059853;28;20183;-72
2021/06/07 03:55:39;;;;;;;5.87;1.70;;;17.20;91.30;;;;;;5044953;28;20225;-72
2021/06/07 03:58:07;;;;;;;6.03;1.63;;;17.20;91.40;;;;;;5061617;28;20603;-72
2021/06/07 04:00:35;;;;;;;4.93;1.60;;;17.20;91.70;;;;;;5058608;28;20198;-73
2021/06/07 04:03:05;;;;;;;8.03;1.50;;;17.20;91.60;;;;;;5054693;28;20667;-75
2021/06/07 04:05:36;;;;;;;4.03;1.47;;;17.20;91.90;;;;;;5040509;28;20714;-75
2021/06/07 04:08:06;;;;;;;2.63;1.40;;;17.30;92.20;;;;;;5042674;28;20183;-74
2021/06/07 04:10:33;;;;;;;6.07;1.47;;;17.30;92.30;;;;;;5056118;28;20553;-75
2021/06/07 04:12:59;;;;;;;6.40;1.53;;;17.40;92.40;;;;;;5054610;28;20204;-75
2021/06/07 04:15:28;;;;;;;2.00;1.43;;;17.40;92.30;;;;;;5055506;28;20306;-73
2021/06/07 04:17:57;;;;;;;4.63;1.77;;;17.60;92.40;;;;;;5054015;28;20669;-74
2021/06/07 04:20:30;;;;;;;2.20;1.40;;;17.70;92.30;;;;;;5057885;28;20572;-74
2021/06/07 04:22:57;;;;;;;3.20;1.23;;;17.80;92.20;;;;;;5059449;28;20544;-73
2021/06/07 04:25:25;;;;;;;1.27;1.13;;;17.90;91.80;;;;;;5056647;28;20237;-74
2021/06/07 04:27:53;;;;;;;3.13;1.53;;;18.00;92.00;;;;;;5053796;28;20198;-72
2021/06/07 04:30:21;;;;;;;3.10;1.43;;;18.10;91.90;;;;;;5056418;28;20194;-74
2021/06/07 04:32:50;;;;;;;5.37;1.40;;;18.20;92.30;;;;;;5057603;28;20698;-75
2021/06/07 04:35:17;;;;;;;3.40;1.40;;;18.40;92.90;;;;;;5051223;28;20201;-73
2021/06/07 04:37:51;;;;;;;8.53;1.80;;;18.50;92.40;;;;;;5054221;28;20555;-71
2021/06/07 04:40:39;;;;;;;3.00;1.50;;;18.70;92.30;;;;;;5057355;28;20220;-73
2021/06/07 04:43:11;;;;;;;3.97;1.57;;;18.80;92.00;;;;;;5070892;28;20727;-74
2021/06/07 04:45:40;;;;;;;1.27;1.17;;;19.00;92.50;;;;;;5058998;28;20278;-73
2021/06/07 04:48:07;;;;;;;3.33;1.77;;;19.20;91.90;;;;;;5055188;28;20198;-74
2021/06/07 04:50:34;;;;;;;6.27;1.90;;;19.10;91.80;;;;;;5055504;28;20550;-72
2021/06/07 04:53:02;;;;;;;2.30;1.43;;;19.20;92.30;;;;;;5054055;28;20282;-74
2021/06/07 04:55:43;;;;;;;5.37;1.70;;;19.30;92.00;;;;;;5059201;28;20280;-72
2021/06/07 04:58:29;;;;;;;6.27;1.73;;;19.40;91.40;;;;;;5050932;28;20587;-72
2021/06/07 05:01:00;;;;;;;5.90;1.50;;;19.40;91.80;;;;;;5056327;28;20674;-69
2021/06/07 05:03:28;;;;;;;2.40;1.43;;;19.40;91.80;;;;;;5059594;28;20270;-71
2021/06/07 05:05:56;;;;;;;2.87;1.60;;;19.50;91.50;;;;;;5061321;28;20687;-72
2021/06/07 05:08:28;;;;;;;2.13;1.50;;;19.50;92.10;;;;;;5039592;28;20194;-73
2021/06/07 05:10:56;;;;;;;3.13;1.37;;;19.60;91.30;;;;;;5053613;28;20202;-68
2021/06/07 05:13:25;;;;;;;2.50;1.40;;;19.70;91.20;;;;;;5052715;28;20610;-72
2021/06/07 05:15:53;;;;;;;3.00;1.50;;;19.70;91.90;;;;;;5058854;28;20210;-72
2021/06/07 05:18:21;;;;;;;5.97;1.40;;;19.90;87.60;;;;;;5057914;28;20635;-72
2021/06/07 05:20:47;;;;;;;4.37;1.43;;;20.20;90.50;;;;;;5059496;28;20292;-71
2021/06/07 05:23:14;;;;;;;2.93;1.70;;;20.10;90.50;;;;;;5052886;28;20194;-69
2021/06/07 05:25:42;;;;;;;3.50;1.67;;;20.10;90.50;;;;;;5058932;28;20253;-69
2021/06/07 05:28:12;;;;;;;3.33;1.53;;;20.30;90.40;;;;;;5052455;28;20226;-72
2021/06/07 05:30:41;;;;;;;7.60;1.70;;;20.30;91.20;;;;;;5060386;28;20198;-72
2021/06/07 05:33:08;;;;;;;5.33;1.40;;;20.30;91.70;;;;;;5055626;28;20309;-73
2021/06/07 05:35:40;;;;;;;3.17;1.43;;;20.30;90.80;;;;;;5067793;28;20496;-70
2021/06/07 05:38:09;;;;;;;3.27;1.73;;;20.70;87.70;;;;;;5052019;28;20656;-71
2021/06/07 05:40:37;;;;;;;4.27;1.57;;;21.00;88.60;;;;;;5057683;28;20188;-71
2021/06/07 05:43:04;;;;;;;6.20;1.77;;;21.00;88.50;;;;;;5052286;28;20714;-71
2021/06/07 05:45:31;;;;;;;4.93;2.00;;;21.00;89.40;;;;;;5054597;28;20195;-72
2021/06/07 05:47:58;;;;;;;5.83;1.67;;;21.10;88.60;;;;;;5042261;28;20281;-71
2021/06/07 05:50:28;;;;;;;6.47;1.90;;;21.30;86.10;;;;;;5055212;28;20202;-70
2021/06/07 05:52:55;;;;;;;4.40;1.87;;;21.20;90.20;;;;;;5052024;28;20194;-71
2021/06/07 05:55:36;;;;;;;2.50;1.50;;;21.10;89.30;;;;;;5054163;28;20222;-72
2021/06/07 05:58:10;;;;;;;5.50;1.80;;;21.30;87.90;;;;;;5052624;28;20755;-71
2021/06/07 06:00:41;;;;;;;3.80;1.40;;;21.40;85.50;;;;;;5055183;28;20201;-73
2021/06/07 06:03:08;;;;;;;3.93;1.57;;;21.70;87.60;;;;;;5056306;28;20212;-76
2021/06/07 06:05:36;;;;;;;4.80;1.60;;;21.90;83.50;;;;;;5052387;28;20742;-74
2021/06/07 06:08:05;;;;;;;5.10;1.60;;;21.90;83.10;;;;;;5061229;28;20595;-75
2021/06/07 06:10:34;;;;;;;3.33;1.53;;;21.90;84.00;;;;;;5057002;28;20646;-77
2021/06/07 06:13:01;;;;;;;7.60;1.70;;;21.90;85.40;;;;;;5061776;28;20198;-76
2021/06/07 06:15:27;;;;;;;5.80;1.70;;;22.20;83.60;;;;;;5058994;28;20222;-71
2021/06/07 06:17:55;;;;;;;6.73;2.20;;;22.10;83.70;;;;;;5056335;28;20678;-71
2021/06/07 06:20:29;;;;;;;5.43;1.80;;;22.20;82.50;;;;;;5059083;28;20205;-72
2021/06/07 06:22:58;;;;;;;3.47;1.50;;;22.70;81.60;;;;;;5060713;28;20189;-71
2021/06/07 06:25:25;;;;;;;3.93;1.60;;;22.60;82.50;;;;;;5054995;28;20202;-71
2021/06/07 06:27:52;;;;;;;4.03;1.50;;;22.50;82.10;;;;;;5057604;28;20218;-70
2021/06/07 06:30:27;;;;;;;2.87;1.70;;;22.80;81.40;;;;;;5056333;28;20221;-71
2021/06/07 06:32:59;;;;;;;4.83;1.67;;;22.90;80.10;;;;;;5061004;28;20280;-72
2021/06/07 06:35:28;;;;;;;4.30;1.70;;;23.10;78.80;;;;;;5055218;28;20219;-72
2021/06/07 06:37:55;;;;;;;4.47;1.53;;;23.30;77.40;;;;;;5046078;28;20341;-73
2021/06/07 06:40:27;;;;;;;3.07;1.70;;;23.30;78.30;;;;;;5065378;28;20792;-73
2021/06/07 06:42:56;;;;;;;6.20;1.77;;;23.40;78.10;;;;;;5065480;28;20256;-72
2021/06/07 06:45:23;;;;;;;2.23;1.60;;;23.80;77.00;;;;;;5055259;28;20229;-73
2021/06/07 06:47:57;;;;;;;3.23;1.40;;;24.00;76.90;;;;;;5059333;28;20202;-73
2021/06/07 06:50:34;;;;;;;4.40;1.70;;;24.10;74.70;;;;;;5057971;28;20203;-72
2021/06/07 06:53:10;;;;;;;4.07;1.80;;;23.90;76.50;;;;;;5062100;28;20190;-73
2021/06/07 06:55:37;;;;;;;6.20;1.70;;;24.20;74.40;;;;;;5075669;28;20240;-73
2021/06/07 06:58:04;;;;;;;8.70;1.90;;;24.40;76.90;;;;;;5064306;28;20313;-74
2021/06/07 07:00:36;;;;;;;2.03;1.40;;;24.40;75.40;;;;;;5062039;28;20235;-74
2021/06/07 07:03:09;;;;;;;3.87;1.43;;;24.40;76.50;;;;;;5057249;28;20297;-71
2021/06/07 07:05:36;;;;;;;3.53;1.73;;;24.40;76.90;;;;;;5062434;28;20219;-71
2021/06/07 07:08:04;;;;;;;2.10;1.40;;;24.20;77.80;;;;;;5063009;28;20639;-72
2021/06/07 07:10:31;;;;;;;3.05;1.77;;;24.60;75.90;;;;;;5060346;28;20198;-71
2021/06/07 07:13:00;;;;;;;5.00;1.70;;;24.70;76.00;;;;;;5054696;28;20202;-74
2021/06/07 07:15:27;;;;;;;5.03;1.92;;;24.90;76.90;;;;;;5053623;28;20215;-74
2021/06/07 07:17:53;;;;;;;4.95;1.70;;;25.00;76.20;;;;;;5060112;28;20194;-74
2021/06/07 07:20:20;;;;;;;8.23;1.88;;;25.20;74.90;;;;;;5055924;28;20366;-71
2021/06/07 07:22:47;;;;;;;3.80;1.80;;;25.10;74.80;;;;;;5059545;28;20226;-71
2021/06/07 07:25:14;;;;;;;4.53;1.70;;;25.10;74.20;;;;;;5035585;28;20194;-73
2021/06/07 07:27:42;;;;;;;4.72;1.50;;;25.00;73.70;;;;;;5044169;28;20210;-71
2021/06/07 07:30:13;;;;;;;4.50;1.70;;;25.00;74.30;;;;;;5040453;28;20190;-71
2021/06/07 07:32:46;;;;;;;2.30;1.60;;;25.30;73.00;;;;;;5054328;28;20210;-69
2021/06/07 07:35:14;;;;;;;3.65;1.65;;;25.50;68.80;;;;;;5056033;28;20192;-69
2021/06/07 07:37:42;;;;;;;7.88;1.50;;;25.70;68.00;;;;;;5070455;28;20184;-69
2021/06/07 07:40:13;;;;;;;2.58;1.40;;;25.80;68.30;;;;;;5054429;28;20179;-71
2021/06/07 07:42:40;;;;;;;6.25;1.80;;;25.90;69.50;;;;;;5057384;28;20192;-71
2021/06/07 07:45:09;;;;;;;2.50;1.35;;;26.00;69.50;;;;;;5058199;28;20632;-71
2021/06/07 07:47:38;;;;;;;4.68;1.30;;;26.00;70.40;;;;;;5045934;28;20179;-71
2021/06/07 07:50:11;;;;;;;1.50;1.23;;;25.90;68.10;;;;;;5056242;28;20179;-72
2021/06/07 07:52:41;;;;;;;5.07;1.40;;;26.00;68.70;;;;;;5045056;28;20186;-73
2021/06/07 07:55:18;;;;;;;3.78;1.30;;;26.10;69.10;;;;;;5055907;28;20198;-72
2021/06/07 07:57:45;;;;;;;5.63;1.40;;;26.10;69.80;;;;;;5057081;28;20285;-69
2021/06/07 08:00:14;;;;;;;2.75;1.60;;;26.20;69.40;;;;;;5047431;28;20202;-72
2021/06/07 08:02:41;;;;;;;3.10;1.35;;;26.20;69.40;;;;;;5060160;28;20689;-71
2021/06/07 08:05:11;;;;;;;7.75;1.60;;;26.20;68.50;;;;;;5040776;28;20234;-71
2021/06/07 08:07:39;;;;;;;5.88;1.98;;;26.30;68.50;;;;;;5054218;28;20191;-71
2021/06/07 08:10:08;;;;;;;3.97;1.63;;;26.20;69.70;;;;;;5083912;28;20187;-72
2021/06/07 08:12:35;;;;;;;5.20;1.77;;;26.30;67.50;;;;;;5056194;28;20742;-71
2021/06/07 08:15:03;;;;;;;3.00;1.50;;;26.40;68.20;;;;;;5061084;28;20273;-72
2021/06/07 08:17:29;;;;;;;6.15;1.58;;;26.60;68.00;;;;;;5045331;28;20207;-71
2021/06/07 08:19:55;;;;;;;2.72;1.50;;;26.70;66.90;;;;;;5066201;28;20188;-72
2021/06/07 08:22:22;;;;;;;3.13;1.50;;;26.70;66.80;;;;;;5058639;28;20270;-73
2021/06/07 08:24:48;;;;;;;3.40;1.38;;;26.50;68.50;;;;;;5057462;28;20269;-71
2021/06/07 08:27:15;;;;;;;5.05;1.52;;;26.40;69.00;;;;;;5058186;28;20210;-74
2021/06/07 08:29:41;;;;;;;4.45;1.63;;;26.60;68.60;;;;;;5055659;28;20188;-71
2021/06/07 08:32:08;;;;;;;7.20;1.70;;;26.90;67.10;;;;;;5043830;28;20195;-72
2021/06/07 08:34:35;;;;;;;3.72;1.65;;;27.20;66.50;;;;;;5084909;28;21222;-73
2021/06/07 08:37:02;;;;;;;3.05;1.40;;;27.30;66.50;;;;;;5041576;28;20207;-72
2021/06/07 08:39:29;;;;;;;6.47;1.40;;;27.40;64.80;;;;;;5063406;28;20215;-72
2021/06/07 08:41:57;;;;;;;2.38;1.40;;;27.20;67.60;;;;;;5042370;28;20179;-73
2021/06/07 08:44:25;;;;;;;2.38;1.27;;;27.10;65.60;;;;;;5055406;28;20192;-68
2021/06/07 08:46:52;;;;;;;5.93;1.45;;;27.20;67.30;;;;;;5060750;28;20278;-71
2021/06/07 08:49:18;;;;;;;4.32;1.42;;;27.20;66.20;;;;;;5055581;28;20531;-72
2021/06/07 08:51:45;;;;;;;6.63;1.70;;;27.20;66.30;;;;;;5052149;28;20286;-75
2021/06/07 08:54:11;;;;;;;4.13;1.75;;;27.30;67.50;;;;;;5056075;28;20203;-72
2021/06/07 08:56:40;;;;;;;6.53;1.75;;;27.70;70.20;;;;;;5056739;28;20230;-72
2021/06/07 08:59:06;;;;;;;3.85;1.50;;;27.50;71.00;;;;;;5033274;28;20738;-70
2021/06/07 09:01:33;;;;;;;5.30;1.60;;;28.00;65.20;;;;;;5057928;28;21069;-69
2021/06/07 09:04:16;;;;;;;2.65;1.55;;;28.10;64.30;;;;;;5059218;28;20222;-72
2021/06/07 09:06:48;;;;;;;13.73;1.92;;;27.90;64.60;;;;;;5080985;28;20210;-70
2021/06/07 09:09:24;;;;;;;5.07;1.70;;;27.80;65.00;;;;;;5058443;28;20209;-71
2021/06/07 09:12:04;;;;;;;8.18;1.60;;;28.00;67.10;;;;;;5057951;28;20191;-70
2021/06/07 09:14:37;;;;;;;7.38;1.80;;;28.30;66.00;;;;;;5061913;28;20194;-73
2021/06/07 09:17:20;;;;;;;6.43;1.58;;;28.30;66.80;;;;;;5060618;28;20238;-74
2021/06/07 09:19:47;;;;;;;3.83;1.60;;;28.20;67.90;;;;;;5060249;28;20265;-72
2021/06/07 09:22:29;;;;;;;2.95;1.40;;;28.30;67.80;;;;;;5044256;28;20677;-70
2021/06/07 09:25:17;;;;;;;12.55;1.83;;;28.40;69.50;;;;;;5058164;28;20186;-73
2021/06/07 09:28:23;;;;;;;6.00;1.85;;;28.60;69.60;;;;;;5082848;28;20190;-72
2021/06/07 09:30:57;;;;;;;5.28;1.48;;;28.80;69.10;;;;;;5058896;28;20191;-71
2021/06/07 09:33:41;;;;;;;7.22;1.80;;;28.50;67.10;;;;;;5057029;28;20182;-71
2021/06/07 09:36:14;;;;;;;4.38;1.67;;;28.50;66.10;;;;;;5056249;28;20220;-71
2021/06/07 09:39:26;;;;;;;7.45;1.60;;;28.50;67.70;;;;;;5059515;28;20187;-71
2021/06/07 09:42:01;;;;;;;6.65;1.50;;;28.80;67.50;;;;;;5056122;28;20651;-71
2021/06/07 09:44:49;;;;;;;4.07;1.63;;;29.20;66.40;;;;;;5061350;28;20225;-70
2021/06/07 09:47:32;;;;;;;3.92;1.50;;;29.10;67.60;;;;;;5054594;28;20193;-72
2021/06/07 09:50:16;;;;;;;3.72;1.92;;;29.00;67.30;;;;;;5058105;28;20190;-70
2021/06/07 09:52:53;;;;;;;4.22;1.35;;;29.10;67.50;;;;;;5059963;28;20179;-72
2021/06/07 09:55:21;;;;;;;6.28;1.58;;;29.20;66.40;;;;;;5044223;28;20691;-75
2021/06/07 09:57:56;;;;;;;8.60;1.65;;;29.30;66.50;;;;;;5056833;28;20207;-70
2021/06/07 10:00:49;;;;;;;4.78;1.20;;;29.40;66.60;;;;;;5056646;28;20182;-70
2021/06/07 10:03:31;;;;;;;2.17;1.30;;;29.60;66.70;;;;;;5055684;28;20194;-70
2021/06/07 10:06:35;;;;;;;3.65;1.58;;;29.60;66.90;;;;;;5059527;28;20870;-69
2021/06/07 10:09:09;;;;;;;4.15;1.45;;;29.90;65.70;;;;;;5057740;28;20639;-70
2021/06/07 10:11:45;;;;;;;5.70;1.40;;;29.90;65.50;;;;;;5057372;28;20273;-71
2021/06/07 10:14:22;;;;;;;2.25;1.52;;;30.00;67.20;;;;;;5059634;28;20213;-70
2021/06/07 10:17:02;;;;;;;5.10;1.77;;;30.10;65.90;;;;;;5043128;28;20280;-69
2021/06/07 10:19:41;;;;;;;7.30;1.58;;;30.00;63.50;;;;;;5059374;28;20203;-72
2021/06/07 10:22:08;;;;;;;2.63;1.77;;;29.90;64.80;;;;;;5064205;28;20259;-70
2021/06/07 10:24:34;;;;;;;4.20;1.60;;;30.00;66.10;;;;;;5059455;28;20269;-70
2021/06/07 10:27:03;;;;;;;2.47;1.50;;;30.10;64.30;;;;;;5052693;28;20205;-70
2021/06/07 10:29:43;;;;;;;3.05;1.27;;;29.90;66.00;;;;;;5057602;28;20218;-71
2021/06/07 10:32:13;;;;;;;4.05;1.30;;;29.80;63.20;;;;;;5042841;28;20187;-72
2021/06/07 10:34:54;;;;;;;3.72;1.45;;;29.80;65.50;;;;;;5059026;28;20193;-73
2021/06/07 10:37:21;;;;;;;2.38;1.40;;;29.70;63.70;;;;;;5053273;28;21005;-71
2021/06/07 10:39:49;;;;;;;5.68;1.55;;;29.60;63.40;;;;;;5058651;28;20184;-72
2021/06/07 10:42:24;;;;;;;5.32;1.83;;;29.60;63.90;;;;;;5050606;28;20191;-71
2021/06/07 10:45:20;;;;;;;6.85;1.52;;;29.60;63.10;;;;;;5058648;28;20286;-71
2021/06/07 10:47:49;;;;;;;4.55;1.60;;;29.70;63.50;;;;;;5044166;28;20205;-76
2021/06/07 10:50:24;;;;;;;3.00;1.88;;;29.50;63.30;;;;;;5061572;28;20921;-75
2021/06/07 10:52:57;;;;;;;4.68;1.50;;;29.60;64.70;;;;;;5057913;28;20218;-70
2021/06/07 10:55:41;;;;;;;3.70;1.75;;;29.60;64.30;;;;;;5051849;28;20263;-74
2021/06/07 10:58:12;;;;;;;8.73;1.70;;;29.50;64.50;;;;;;5060033;28;20197;-71
2021/06/07 11:00:49;;;;;;;5.68;1.67;;;29.40;64.80;;;;;;5056867;28;20179;-71
2021/06/07 11:03:33;;;;;;;20.92;2.97;;;29.40;67.10;;;;;;5051104;28;20194;-70
2021/06/07 11:06:04;;;;;;;2.58;1.60;;;29.40;67.20;;;;;;5056846;28;20207;-71
2021/06/07 11:08:36;;;;;;;3.55;1.60;;;29.40;67.90;;;;;;5051939;28;20194;-73
2021/06/07 11:11:22;;;;;;;4.68;1.70;;;29.50;67.90;;;;;;5056387;28;20187;-69
2021/06/07 11:13:53;;;;;;;5.90;1.80;;;29.50;67.10;;;;;;5056921;28;20258;-71
2021/06/07 11:16:38;;;;;;;4.07;1.70;;;29.40;66.20;;;;;;5060424;28;20614;-71
2021/06/07 11:19:16;;;;;;;2.05;1.45;;;29.30;67.30;;;;;;5052471;28;20225;-71
2021/06/07 11:22:05;;;;;;;5.75;1.38;;;29.30;66.50;;;;;;5054702;28;20187;-74
2021/06/07 11:24:36;;;;;;;5.07;1.60;;;29.30;65.80;;;;;;5057573;28;20218;-70
2021/06/07 11:27:07;;;;;;;5.45;1.63;;;29.30;65.20;;;;;;5055582;28;20285;-72
2021/06/07 11:30:12;;;;;;;2.95;1.50;;;29.20;65.90;;;;;;5053833;28;20712;-71
2021/06/07 11:32:38;;;;;;;6.75;1.80;;;29.00;65.60;;;;;;5059440;28;20274;-71
2021/06/07 11:35:05;;;;;;;3.22;1.40;;;29.00;66.50;;;;;;5059039;28;20209;-72
2021/06/07 11:37:35;;;;;;;4.38;1.70;;;28.80;66.30;;;;;;5060258;28;20721;-71
2021/06/07 11:40:09;;;;;;;4.03;1.42;;;29.00;66.90;;;;;;5056913;28;20258;-73
2021/06/07 11:42:56;;;;;;;5.38;1.60;;;29.10;66.90;;;;;;5037364;28;20659;-72
2021/06/07 11:45:41;;;;;;;4.72;1.80;;;29.20;65.80;;;;;;5057293;28;20282;-71
2021/06/07 11:48:07;;;;;;;3.30;1.80;;;28.90;64.80;;;;;;5055774;28;20195;-70
2021/06/07 11:50:40;;;;;;;10.50;1.73;;;28.70;63.70;;;;;;5059529;28;20281;-72
2021/06/07 11:53:17;;;;;;;3.50;1.52;;;28.80;62.70;;;;;;5058268;28;20188;-72
2021/06/07 11:55:53;;;;;;;5.10;1.63;;;28.80;61.90;;;;;;5058856;28;20214;-70
2021/06/07 11:58:25;;;;;;;3.78;1.60;;;28.90;62.00;;;;;;5059590;28;20641;-72
2021/06/07 12:00:57;;;;;;;6.53;1.73;;;28.30;62.70;;;;;;5054810;28;20249;-71
2021/06/07 12:03:28;;;;;;;2.80;1.77;;;28.50;62.50;;;;;;5056043;28;20209;-71
2021/06/07 12:05:56;;;;;;;5.13;1.35;;;28.40;61.40;;;;;;5056357;28;20207;-72
2021/06/07 12:08:25;;;;;;;2.75;1.50;;;28.00;63.20;;;;;;5060730;28;20198;-71
2021/06/07 12:11:02;;;;;;;3.25;1.52;;;28.30;64.00;;;;;;5060787;28;20279;-71
2021/06/07 12:13:32;;;;;;;8.25;2.08;;;28.50;63.80;;;;;;5059071;28;20265;-72
2021/06/07 12:16:19;;;;;;;3.90;1.70;;;28.40;61.90;;;;;;5057784;28;20251;-71
2021/06/07 12:18:49;;;;;;;4.10;1.50;;;28.30;62.40;;;;;;5057741;28;20230;-72
2021/06/07 12:21:23;;;;;;;3.15;1.60;;;28.50;61.20;;;;;;5061879;28;20584;-73
2021/06/07 12:24:10;;;;;;;2.78;1.70;;;28.40;60.60;;;;;;5053694;28;20651;-72
2021/06/07 12:29:27;;;;;;;4.18;1.38;;;28.30;61.10;;;;;;5055675;28;20187;-71
2021/06/07 12:32:21;;;;;;;3.25;1.60;;;28.40;61.50;;;;;;5054078;28;20199;-73
2021/06/07 12:35:02;;;;;;;2.53;1.42;;;28.40;60.10;;;;;;5061621;28;20242;-73
2021/06/07 12:37:42;;;;;;;5.00;1.50;;;28.50;60.00;;;;;;5042241;28;20288;-71
2021/06/07 12:40:14;;;;;;;2.72;1.70;;;28.30;60.30;;;;;;5058273;28;20281;-71
2021/06/07 12:42:42;;;;;;;13.52;1.63;;;28.30;60.80;;;;;;5056025;28;20284;-73
2021/06/07 12:45:13;;;;;;;2.75;1.50;;;28.60;58.70;;;;;;5061857;28;20651;-70
2021/06/07 12:47:40;;;;;;;3.97;1.63;;;28.40;59.70;;;;;;5061329;28;20262;-71
2021/06/07 12:50:14;;;;;;;2.95;1.50;;;28.50;59.60;;;;;;5044862;28;20582;-71
2021/06/07 12:52:41;;;;;;;4.60;1.65;;;28.50;60.60;;;;;;5057459;28;20255;-72
2021/06/07 12:55:09;;;;;;;4.97;1.50;;;28.60;58.60;;;;;;5057872;28;20186;-72
2021/06/07 12:57:36;;;;;;;2.70;1.60;;;28.60;58.30;;;;;;5053103;28;20314;-70
2021/06/07 13:00:37;;;;;;;7.32;1.92;;;28.50;58.40;;;;;;5072678;28;20241;-72
2021/06/07 13:03:21;;;;;;;4.78;1.63;;;28.70;58.60;;;;;;5060256;28;20180;-71
2021/06/07 13:06:08;;;;;;;5.70;1.83;;;28.70;58.50;;;;;;5055606;28;20301;-72
2021/06/07 13:09:01;;;;;;;4.90;1.42;;;28.70;58.20;;;;;;5039847;28;20194;-72
2021/06/07 13:11:35;;;;;;;3.35;1.70;;;28.60;57.70;;;;;;5053529;28;20285;-71